Time;durP1;ratioP1;P1;durP2;ratioP2;P2;SDS_P1;SDS_P2;PMS_P1;PMS_P2;Temp;Humidity;BMP_temperature;BMP_pressure;BME280_temperature;BME280_humidity;BME280_pressure;Samples;Min_cycle;Max_cycle;Signal;HPM_P1;HPM_P2
2023/07/25 00:00:40;;;;;;;3.40;2.83;;;;;;;;;;5041093;28;20045;-77
2023/07/25 00:03:08;;;;;;;3.05;2.75;;;;;;;;;;5037996;28;20055;-78
2023/07/25 00:05:36;;;;;;;3.00;2.80;;;;;;;;;;5036367;28;20037;-79
2023/07/25 00:08:03;;;;;;;3.33;3.03;;;;;;;;;;5040532;28;20120;-77
2023/07/25 00:10:33;;;;;;;4.93;2.80;;;;;;;;;;5042931;28;20118;-78
2023/07/25 00:13:00;;;;;;;3.28;3.00;;;;;;;;;;5045705;28;20052;-77
2023/07/25 00:15:28;;;;;;;3.28;2.97;;;;;;;;;;5044372;28;20261;-77
2023/07/25 00:17:56;;;;;;;2.88;2.67;;;;;;;;;;5044325;28;20045;-78
2023/07/25 00:20:24;;;;;;;2.72;2.53;;;;;;;;;;5047321;28;20049;-77
2023/07/25 00:22:51;;;;;;;4.13;2.78;;;;;;;;;;5048073;28;20053;-78
2023/07/25 00:25:19;;;;;;;2.47;2.28;;;;;;;;;;5045961;28;20092;-77
2023/07/25 00:27:46;;;;;;;2.42;2.33;;;;;;;;;;5046196;28;20120;-78
2023/07/25 00:30:14;;;;;;;2.58;2.38;;;;;;;;;;5044417;28;20053;-77
2023/07/25 00:32:41;;;;;;;2.88;2.65;;;;;;;;;;5046274;28;20527;-78
2023/07/25 00:35:09;;;;;;;2.83;2.63;;;;;;;;;;5046239;28;20061;-78
2023/07/25 00:37:37;;;;;;;2.70;2.50;;;;;;;;;;5045278;28;20817;-78
2023/07/25 00:40:04;;;;;;;2.28;2.10;;;;;;;;;;5045977;28;20057;-77
2023/07/25 00:42:32;;;;;;;2.85;2.65;;;;;;;;;;5044945;28;20099;-78
2023/07/25 00:44:59;;;;;;;2.47;2.28;;;;;;;;;;5046783;28;20036;-77
2023/07/25 00:47:27;;;;;;;2.67;2.47;;;;;;;;;;5048065;28;20041;-78
2023/07/25 00:49:55;;;;;;;2.85;2.65;;;;;;;;;;5042838;28;20517;-78
2023/07/25 00:52:22;;;;;;;2.42;2.22;;;;;;;;;;5047324;28;20515;-78
2023/07/25 00:54:50;;;;;;;2.97;2.75;;;;;;;;;;5047835;28;20060;-77
2023/07/25 00:57:19;;;;;;;2.58;2.38;;;;;;;;;;5047979;28;20150;-77
2023/07/25 00:59:47;;;;;;;2.60;2.40;;;;;;;;;;5051446;28;20323;-78
2023/07/25 01:02:15;;;;;;;2.88;2.60;;;;;;;;;;5045175;28;20049;-78
2023/07/25 01:04:43;;;;;;;2.50;2.30;;;;;;;;;;5044027;28;20056;-77
2023/07/25 01:07:13;;;;;;;3.05;2.67;;;;;;;;;;5050090;28;20510;-78
2023/07/25 01:09:42;;;;;;;3.28;2.80;;;;;;;;;;5044949;28;20503;-77
2023/07/25 01:12:10;;;;;;;4.53;2.78;;;;;;;;;;5047853;28;20037;-78
2023/07/25 01:14:38;;;;;;;3.00;2.60;;;;;;;;;;5050241;28;20049;-78
2023/07/25 01:17:08;;;;;;;4.30;2.38;;;;;;;;;;5089057;22;20517;-74
2023/07/25 01:19:38;;;;;;;2.80;2.60;;;;;;;;;;5030483;28;20474;-74
2023/07/25 01:22:06;;;;;;;2.85;2.65;;;;;;;;;;5029329;28;20037;-74
2023/07/25 01:24:35;;;;;;;2.63;2.42;;;;;;;;;;5018876;28;21367;-74
2023/07/25 01:27:02;;;;;;;3.00;2.70;;;;;;;;;;5028496;28;20046;-74
2023/07/25 01:29:30;;;;;;;2.65;2.45;;;;;;;;;;5036688;28;20361;-74
2023/07/25 01:31:57;;;;;;;2.55;2.45;;;;;;;;;;5024129;28;20049;-74
2023/07/25 01:34:25;;;;;;;2.53;2.33;;;;;;;;;;5017726;28;20136;-74
2023/07/25 01:36:53;;;;;;;2.80;2.60;;;;;;;;;;5007329;28;20120;-74
2023/07/25 01:39:20;;;;;;;3.90;2.35;;;;;;;;;;5009950;28;20466;-74
2023/07/25 01:41:48;;;;;;;3.00;2.80;;;;;;;;;;5019878;28;20052;-74
2023/07/25 01:44:15;;;;;;;3.05;2.75;;;;;;;;;;5028644;28;20129;-74
2023/07/25 01:46:43;;;;;;;2.60;2.40;;;;;;;;;;5023448;28;20045;-74
2023/07/25 01:49:11;;;;;;;2.70;2.50;;;;;;;;;;5023360;28;20045;-74
2023/07/25 01:51:39;;;;;;;3.38;2.30;;;;;;;;;;5028800;28;20049;-74
2023/07/25 01:54:07;;;;;;;2.83;2.63;;;;;;;;;;5028781;28;20128;-74
2023/07/25 01:56:34;;;;;;;3.75;2.60;;;;;;;;;;5013159;28;20467;-74
2023/07/25 01:59:02;;;;;;;2.45;2.30;;;;;;;;;;5006368;28;20052;-74
2023/07/25 02:01:30;;;;;;;3.30;3.00;;;;;;;;;;4996806;28;21851;-74
2023/07/25 02:03:58;;;;;;;2.60;2.40;;;;;;;;;;5021461;28;20620;-74
2023/07/25 02:06:25;;;;;;;2.53;2.33;;;;;;;;;;4999224;28;20038;-74
2023/07/25 02:08:52;;;;;;;2.42;2.22;;;;;;;;;;5014311;28;20050;-74
2023/07/25 02:11:20;;;;;;;2.60;2.40;;;;;;;;;;5016614;28;20499;-74
2023/07/25 02:13:47;;;;;;;2.80;2.60;;;;;;;;;;5015787;28;20110;-74
2023/07/25 02:16:15;;;;;;;2.80;2.60;;;;;;;;;;5012214;28;20052;-74
2023/07/25 02:18:42;;;;;;;3.25;2.70;;;;;;;;;;5001563;28;20061;-74
2023/07/25 02:21:09;;;;;;;2.70;2.50;;;;;;;;;;5016840;28;20046;-74
2023/07/25 02:23:37;;;;;;;3.03;2.58;;;;;;;;;;5001239;28;20072;-74
2023/07/25 02:26:05;;;;;;;3.30;3.00;;;;;;;;;;5016955;28;20073;-75
2023/07/25 02:28:32;;;;;;;2.60;2.50;;;;;;;;;;5003764;28;20045;-75
2023/07/25 02:31:00;;;;;;;2.55;2.35;;;;;;;;;;5013359;28;20049;-75
2023/07/25 02:33:28;;;;;;;3.08;2.88;;;;;;;;;;5011091;28;20046;-75
2023/07/25 02:35:55;;;;;;;2.70;2.50;;;;;;;;;;5025802;28;20127;-75
2023/07/25 02:38:22;;;;;;;2.80;2.50;;;;;;;;;;5005797;28;20073;-75
2023/07/25 02:40:50;;;;;;;2.95;2.50;;;;;;;;;;5034910;28;20053;-74
2023/07/25 02:43:18;;;;;;;2.78;2.58;;;;;;;;;;5020245;28;20041;-74
2023/07/25 02:45:45;;;;;;;3.00;2.80;;;;;;;;;;5023151;28;20534;-75
2023/07/25 02:48:12;;;;;;;3.75;2.63;;;;;;;;;;5032708;28;20247;-75
2023/07/25 02:50:40;;;;;;;4.32;2.38;;;;;;;;;;5010074;28;20071;-75
2023/07/25 02:53:07;;;;;;;2.85;2.65;;;;;;;;;;5000503;28;20092;-75
2023/07/25 02:55:35;;;;;;;2.70;2.53;;;;;;;;;;5001695;28;20041;-75
2023/07/25 02:58:02;;;;;;;2.88;2.53;;;;;;;;;;5006929;28;20606;-75
2023/07/25 03:00:30;;;;;;;2.78;2.58;;;;;;;;;;5020771;28;20119;-75
2023/07/25 03:02:57;;;;;;;2.88;2.40;;;;;;;;;;5004581;28;20064;-75
2023/07/25 03:05:27;;;;;;;2.83;2.63;;;;;;;;;;5016434;28;20047;-75
2023/07/25 03:07:56;;;;;;;2.60;2.40;;;;;;;;;;5016291;28;20077;-75
2023/07/25 03:10:23;;;;;;;2.70;2.50;;;;;;;;;;5003002;28;20064;-75
2023/07/25 03:12:52;;;;;;;2.85;2.65;;;;;;;;;;5001659;28;20052;-75
2023/07/25 03:15:20;;;;;;;3.00;2.45;;;;;;;;;;5017888;28;20520;-75
2023/07/25 03:17:48;;;;;;;2.55;2.35;;;;;;;;;;5016130;28;20533;-75
2023/07/25 03:20:15;;;;;;;4.90;2.78;;;;;;;;;;4999015;28;20046;-75
2023/07/25 03:22:42;;;;;;;2.40;2.30;;;;;;;;;;5015556;28;20049;-75
2023/07/25 03:25:10;;;;;;;3.38;2.83;;;;;;;;;;5021483;28;20360;-75
2023/07/25 03:27:38;;;;;;;2.45;2.30;;;;;;;;;;5022564;28;20364;-75
2023/07/25 03:30:06;;;;;;;2.70;2.50;;;;;;;;;;5008113;28;20075;-75
2023/07/25 03:32:33;;;;;;;4.55;2.50;;;;;;;;;;5028891;28;20057;-75
2023/07/25 03:35:01;;;;;;;2.60;2.40;;;;;;;;;;5028135;28;20053;-75
2023/07/25 03:37:28;;;;;;;4.13;2.55;;;;;;;;;;5017336;28;20065;-75
2023/07/25 03:39:56;;;;;;;2.83;2.60;;;;;;;;;;5014058;28;20057;-75
2023/07/25 03:42:23;;;;;;;3.20;2.90;;;;;;;;;;5029113;28;20064;-75
2023/07/25 03:44:52;;;;;;;3.03;2.83;;;;;;;;;;5031030;28;20447;-74
2023/07/25 03:47:19;;;;;;;3.95;3.03;;;;;;;;;;5020897;28;20364;-75
2023/07/25 03:49:47;;;;;;;2.80;2.60;;;;;;;;;;5017605;28;20047;-75
2023/07/25 03:52:15;;;;;;;3.40;3.10;;;;;;;;;;5030875;28;20037;-75
2023/07/25 03:54:42;;;;;;;3.08;2.80;;;;;;;;;;5009244;28;20044;-75
2023/07/25 03:57:10;;;;;;;3.03;2.83;;;;;;;;;;5026555;28;20280;-75
2023/07/25 03:59:37;;;;;;;2.65;2.45;;;;;;;;;;5030980;28;20047;-75
2023/07/25 04:02:05;;;;;;;3.33;3.00;;;;;;;;;;5006235;28;20060;-75
2023/07/25 04:04:33;;;;;;;2.95;2.65;;;;;;;;;;5026688;28;20629;-75
2023/07/25 04:07:00;;;;;;;3.13;2.85;;;;;;;;;;4998098;28;20046;-75
2023/07/25 04:09:27;;;;;;;2.60;2.40;;;;;;;;;;5020625;28;20434;-75
2023/07/25 04:11:55;;;;;;;2.53;2.33;;;;;;;;;;5004611;28;20045;-75
2023/07/25 04:14:22;;;;;;;2.83;2.63;;;;;;;;;;5023129;28;20054;-75
2023/07/25 04:16:50;;;;;;;2.90;2.60;;;;;;;;;;5003038;28;20054;-75
2023/07/25 04:19:18;;;;;;;3.08;2.72;;;;;;;;;;5001071;28;20048;-75
2023/07/25 04:21:46;;;;;;;2.58;2.38;;;;;;;;;;5016246;28;20495;-75
2023/07/25 04:24:13;;;;;;;4.18;3.10;;;;;;;;;;5020210;28;20057;-75
2023/07/25 04:26:40;;;;;;;4.55;2.83;;;;;;;;;;5002787;28;20048;-75
2023/07/25 04:29:08;;;;;;;2.88;2.63;;;;;;;;;;5028807;28;20644;-75
2023/07/25 04:31:35;;;;;;;3.13;2.92;;;;;;;;;;5014772;28;20599;-75
2023/07/25 04:34:03;;;;;;;3.05;2.80;;;;;;;;;;5019268;28;20061;-75
2023/07/25 04:36:30;;;;;;;3.13;2.55;;;;;;;;;;5019452;28;20052;-75
2023/07/25 04:38:58;;;;;;;3.20;2.85;;;;;;;;;;5017240;28;20132;-75
2023/07/25 04:41:25;;;;;;;3.28;2.97;;;;;;;;;;5008146;28;20092;-75
2023/07/25 04:43:53;;;;;;;3.83;3.10;;;;;;;;;;5022099;28;21121;-75
2023/07/25 04:46:20;;;;;;;3.33;3.03;;;;;;;;;;5004430;28;20041;-77
2023/07/25 04:48:48;;;;;;;5.93;2.88;;;;;;;;;;5004495;28;20135;-75
2023/07/25 04:51:15;;;;;;;3.72;3.35;;;;;;;;;;5009581;28;20104;-76
2023/07/25 04:53:43;;;;;;;4.43;3.05;;;;;;;;;;4995019;28;20071;-76
2023/07/25 04:56:10;;;;;;;3.38;3.10;;;;;;;;;;5010388;28;20062;-75
2023/07/25 04:58:40;;;;;;;3.13;2.92;;;;;;;;;;5011202;28;20567;-76
2023/07/25 05:01:09;;;;;;;2.95;2.60;;;;;;;;;;5016864;28;20533;-76
2023/07/25 05:03:36;;;;;;;2.95;2.75;;;;;;;;;;5009323;28;20096;-76
2023/07/25 05:06:04;;;;;;;2.90;2.70;;;;;;;;;;5000050;28;20050;-75
2023/07/25 05:08:31;;;;;;;2.60;2.40;;;;;;;;;;5013665;28;20070;-75
2023/07/25 05:11:01;;;;;;;3.92;3.05;;;;;;;;;;5020047;28;20381;-75
2023/07/25 05:13:28;;;;;;;5.00;3.53;;;;;;;;;;5020001;28;20049;-75
2023/07/25 05:15:55;;;;;;;3.10;2.90;;;;;;;;;;5020030;28;20151;-76
2023/07/25 05:18:23;;;;;;;3.40;3.10;;;;;;;;;;5022308;28;20052;-76
2023/07/25 05:20:50;;;;;;;4.55;3.30;;;;;;;;;;5020381;28;20049;-75
2023/07/25 05:23:18;;;;;;;3.35;3.03;;;;;;;;;;5017410;28;20076;-76
2023/07/25 05:25:48;;;;;;;3.28;2.97;;;;;;;;;;5018216;28;20136;-75
2023/07/25 05:28:17;;;;;;;3.17;2.97;;;;;;;;;;5020131;28;20050;-75
2023/07/25 05:30:44;;;;;;;3.28;3.00;;;;;;;;;;5019974;28;20053;-76
2023/07/25 05:33:11;;;;;;;3.13;2.92;;;;;;;;;;5020457;28;20105;-75
2023/07/25 05:35:39;;;;;;;3.33;3.00;;;;;;;;;;5018536;28;20116;-75
2023/07/25 05:38:07;;;;;;;2.80;2.60;;;;;;;;;;5016669;28;20045;-75
2023/07/25 05:40:36;;;;;;;5.40;2.67;;;;;;;;;;5013631;28;20454;-76
2023/07/25 05:43:04;;;;;;;2.80;2.55;;;;;;;;;;4999389;28;20037;-75
2023/07/25 05:45:31;;;;;;;9.85;2.67;;;;;;;;;;5014780;28;20127;-75
2023/07/25 05:47:58;;;;;;;2.50;2.28;;;;;;;;;;5018308;28;20432;-75
2023/07/25 05:50:26;;;;;;;2.85;2.30;;;;;;;;;;5014115;28;20049;-75
2023/07/25 05:52:53;;;;;;;2.45;2.30;;;;;;;;;;5015539;28;20107;-75
2023/07/25 05:55:21;;;;;;;2.60;2.40;;;;;;;;;;5019080;28;20130;-76
2023/07/25 05:57:48;;;;;;;2.60;2.40;;;;;;;;;;5015787;28;20511;-76
2023/07/25 06:00:16;;;;;;;2.22;2.13;;;;;;;;;;5009620;28;20124;-75
2023/07/25 06:02:44;;;;;;;2.58;2.40;;;;;;;;;;5010984;28;20087;-76
2023/07/25 06:05:11;;;;;;;4.55;2.65;;;;;;;;;;5013956;28;20096;-75
2023/07/25 06:07:39;;;;;;;2.78;2.13;;;;;;;;;;5014677;28;20463;-75
2023/07/25 06:10:06;;;;;;;3.75;2.63;;;;;;;;;;5019006;28;20099;-76
2023/07/25 06:12:34;;;;;;;2.63;2.40;;;;;;;;;;5021311;28;20085;-75
2023/07/25 06:15:02;;;;;;;2.50;2.30;;;;;;;;;;5022053;28;20392;-75
2023/07/25 06:17:29;;;;;;;3.00;2.30;;;;;;;;;;5013488;28;20068;-75
2023/07/25 06:19:57;;;;;;;2.45;2.25;;;;;;;;;;5021008;28;20064;-75
2023/07/25 06:22:24;;;;;;;2.60;1.88;;;;;;;;;;5021092;28;20054;-75
2023/07/25 06:24:52;;;;;;;2.13;2.03;;;;;;;;;;5015592;28;20107;-75
2023/07/25 06:27:19;;;;;;;2.65;2.47;;;;;;;;;;5011481;28;20404;-75
2023/07/25 06:29:47;;;;;;;2.42;2.33;;;;;;;;;;5019472;28;20168;-76
2023/07/25 06:32:14;;;;;;;3.30;2.20;;;;;;;;;;5016999;28;20566;-76
2023/07/25 06:34:42;;;;;;;2.30;2.10;;;;;;;;;;5020328;28;20053;-75
2023/07/25 06:37:09;;;;;;;2.33;2.10;;;;;;;;;;5015705;28;20057;-75
2023/07/25 06:39:37;;;;;;;2.75;2.55;;;;;;;;;;5018627;28;20050;-75
2023/07/25 06:42:04;;;;;;;4.70;2.28;;;;;;;;;;5012947;28;20463;-76
2023/07/25 06:44:33;;;;;;;2.33;2.13;;;;;;;;;;4996740;28;20124;-75
2023/07/25 06:47:00;;;;;;;2.10;2.00;;;;;;;;;;5003550;28;20045;-76
2023/07/25 06:49:28;;;;;;;3.17;2.30;;;;;;;;;;5021393;28;20050;-75
2023/07/25 06:51:56;;;;;;;2.65;2.45;;;;;;;;;;5022276;28;20057;-75
2023/07/25 06:54:23;;;;;;;2.42;2.08;;;;;;;;;;5025450;28;20525;-75
2023/07/25 06:56:50;;;;;;;20.15;4.25;;;;;;;;;;5024460;28;20064;-76
2023/07/25 06:59:18;;;;;;;3.00;2.20;;;;;;;;;;5021220;28;20131;-76
2023/07/25 07:01:45;;;;;;;2.25;2.05;;;;;;;;;;5022734;28;20042;-75
2023/07/25 07:04:12;;;;;;;2.00;1.90;;;;;;;;;;5008434;28;20068;-76
2023/07/25 07:06:40;;;;;;;4.30;2.63;;;;;;;;;;5018924;28;20446;-75
2023/07/25 07:09:07;;;;;;;2.47;2.28;;;;;;;;;;5018180;28;20399;-75
2023/07/25 07:11:35;;;;;;;2.95;2.15;;;;;;;;;;5018194;28;20619;-76
2023/07/25 07:14:02;;;;;;;3.25;1.83;;;;;;;;;;5025222;28;20109;-75
2023/07/25 07:16:33;;;;;;;2.08;1.88;;;;;;;;;;5072403;23;20053;-87
2023/07/25 07:19:15;;;;;;;2.83;2.63;;;;;;;;;;5045606;28;20048;-87
2023/07/25 07:27:19;;;;;;;;;;;;;;;;;;;;;
2023/07/25 07:31:05;;;;;;;1.50;1.40;;;;;;;;;;5027991;28;20034;-87
2023/07/25 07:51:49;;;;;;;2.25;1.92;;;;;;;;;;4999006;22;20153;-78
2023/07/25 07:54:36;;;;;;;3.58;2.25;;;;;;;;;;5006632;28;20137;-78
2023/07/25 07:57:04;;;;;;;2.50;2.30;;;;;;;;;;4985395;28;20490;-77
2023/07/25 07:59:31;;;;;;;2.53;2.33;;;;;;;;;;5006113;28;20037;-77
2023/07/25 08:01:59;;;;;;;2.45;2.17;;;;;;;;;;5002931;28;20046;-78
2023/07/25 08:04:26;;;;;;;3.20;2.45;;;;;;;;;;5005815;28;20042;-77
2023/07/25 08:06:54;;;;;;;2.60;2.40;;;;;;;;;;5003953;28;20109;-77
2023/07/25 08:09:21;;;;;;;2.00;1.90;;;;;;;;;;5003199;28;20530;-79
2023/07/25 08:11:49;;;;;;;2.08;1.88;;;;;;;;;;5005973;28;20064;-78
2023/07/25 08:14:16;;;;;;;2.00;1.80;;;;;;;;;;4988332;28;20042;-78
2023/07/25 08:16:43;;;;;;;1.60;1.50;;;;;;;;;;5004157;28;20156;-78
2023/07/25 08:19:11;;;;;;;1.90;1.80;;;;;;;;;;5004451;28;20088;-79
2023/07/25 08:21:39;;;;;;;1.70;1.60;;;;;;;;;;4988611;28;20053;-76
2023/07/25 08:24:06;;;;;;;1.83;1.73;;;;;;;;;;5004054;28;20441;-76
2023/07/25 08:26:34;;;;;;;1.98;1.70;;;;;;;;;;5002683;28;20050;-77
2023/07/25 08:29:01;;;;;;;1.75;1.63;;;;;;;;;;5007494;28;20038;-76
2023/07/25 08:31:29;;;;;;;1.88;1.77;;;;;;;;;;5007593;28;20076;-77
2023/07/25 08:33:57;;;;;;;2.08;1.85;;;;;;;;;;5006793;28;20046;-77
2023/07/25 08:36:24;;;;;;;3.42;1.90;;;;;;;;;;5006544;28;20119;-76
2023/07/25 08:38:52;;;;;;;1.77;1.67;;;;;;;;;;5004610;28;20081;-77
2023/07/25 08:41:22;;;;;;;2.35;1.52;;;;;;;;;;5006215;28;20045;-77
2023/07/25 08:43:50;;;;;;;1.52;1.48;;;;;;;;;;5006190;28;20050;-77
2023/07/25 08:46:19;;;;;;;1.70;1.60;;;;;;;;;;4989518;28;20041;-78
2023/07/25 08:48:48;;;;;;;2.10;1.85;;;;;;;;;;5004501;28;20042;-79
2023/07/25 08:51:23;;;;;;;1.75;1.65;;;;;;;;;;5006340;28;20054;-77
2023/07/25 08:54:12;;;;;;;1.83;1.73;;;;;;;;;;5004293;28;20037;-77
2023/07/25 08:56:39;;;;;;;2.40;1.77;;;;;;;;;;4988106;28;20054;-77
2023/07/25 08:59:07;;;;;;;1.90;1.80;;;;;;;;;;5006574;28;20046;-77
2023/07/25 09:01:35;;;;;;;2.03;1.83;;;;;;;;;;5007121;28;20407;-78
2023/07/25 09:04:03;;;;;;;1.90;1.80;;;;;;;;;;5006753;28;20515;-78
2023/07/25 09:06:31;;;;;;;1.40;1.30;;;;;;;;;;5006918;28;20057;-78
2023/07/25 09:08:59;;;;;;;1.88;1.40;;;;;;;;;;5007247;28;20081;-78
2023/07/25 09:11:27;;;;;;;2.30;1.70;;;;;;;;;;5005791;28;20099;-78
2023/07/25 09:13:55;;;;;;;1.40;1.40;;;;;;;;;;5006740;28;20080;-78
2023/07/25 09:16:23;;;;;;;1.48;1.40;;;;;;;;;;5006723;28;20065;-78
2023/07/25 09:18:50;;;;;;;1.50;1.40;;;;;;;;;;5006936;28;20092;-78
2023/07/25 09:21:18;;;;;;;2.85;1.63;;;;;;;;;;4989445;28;20045;-78
2023/07/25 09:23:55;;;;;;;1.45;1.38;;;;;;;;;;5006525;28;20119;-77
2023/07/25 09:26:24;;;;;;;3.47;1.40;;;;;;;;;;5006762;28;20548;-78
2023/07/25 09:28:52;;;;;;;1.40;1.30;;;;;;;;;;5006589;28;20065;-78
2023/07/25 09:31:20;;;;;;;1.55;1.40;;;;;;;;;;5007108;28;20125;-78
2023/07/25 09:33:48;;;;;;;1.58;1.48;;;;;;;;;;5005524;28;20054;-78
2023/07/25 09:36:20;;;;;;;1.92;1.48;;;;;;;;;;5005812;28;20419;-78
2023/07/25 09:38:53;;;;;;;1.60;1.50;;;;;;;;;;5014850;28;20522;-78
2023/07/25 09:41:24;;;;;;;1.58;1.48;;;;;;;;;;4994441;28;20281;-79
2023/07/25 09:43:52;;;;;;;1.52;1.38;;;;;;;;;;5006490;28;20054;-77
2023/07/25 09:46:20;;;;;;;1.80;1.70;;;;;;;;;;5007519;28;20057;-78
2023/07/25 09:48:51;;;;;;;2.10;2.00;;;;;;;;;;5007409;28;20038;-78
2023/07/25 09:51:19;;;;;;;1.52;1.42;;;;;;;;;;4990322;28;20037;-78
2023/07/25 09:53:51;;;;;;;3.80;1.88;;;;;;;;;;4988289;28;20044;-77
2023/07/25 09:56:23;;;;;;;2.25;2.00;;;;;;;;;;5009189;28;20045;-78
2023/07/25 09:58:51;;;;;;;2.10;1.92;;;;;;;;;;5006716;28;20100;-77
2023/07/25 10:01:34;;;;;;;1.98;1.75;;;;;;;;;;5001833;28;20057;-78
2023/07/25 10:04:03;;;;;;;3.72;1.70;;;;;;;;;;5002028;28;21057;-79
2023/07/25 10:06:32;;;;;;;2.17;1.60;;;;;;;;;;5000527;28;20125;-77
2023/07/25 10:08:59;;;;;;;2.25;2.05;;;;;;;;;;5003172;28;20046;-77
2023/07/25 10:11:29;;;;;;;1.80;1.70;;;;;;;;;;5001922;28;20037;-78
2023/07/25 10:13:57;;;;;;;1.73;1.63;;;;;;;;;;4997570;28;20110;-78
2023/07/25 10:16:26;;;;;;;1.67;1.58;;;;;;;;;;5004761;28;20034;-77
2023/07/25 10:18:55;;;;;;;1.50;1.40;;;;;;;;;;5006873;28;20054;-78
2023/07/25 10:21:26;;;;;;;3.50;1.63;;;;;;;;;;5008603;28;20046;-79
2023/07/25 10:24:00;;;;;;;2.55;1.40;;;;;;;;;;5006717;28;20049;-77
2023/07/25 10:26:27;;;;;;;1.88;1.40;;;;;;;;;;4985598;28;20049;-78
2023/07/25 10:28:58;;;;;;;1.48;1.38;;;;;;;;;;5008861;28;20049;-78
2023/07/25 10:31:33;;;;;;;1.92;1.60;;;;;;;;;;5012175;28;20081;-78
2023/07/25 10:34:04;;;;;;;1.75;1.40;;;;;;;;;;5010741;28;20050;-77
2023/07/25 10:36:32;;;;;;;1.75;1.65;;;;;;;;;;5009343;28;20053;-78
2023/07/25 10:39:08;;;;;;;2.58;2.38;;;;;;;;;;5002986;28;20139;-78
2023/07/25 10:41:37;;;;;;;1.50;1.40;;;;;;;;;;5005785;28;20127;-78
2023/07/25 10:44:05;;;;;;;2.75;1.48;;;;;;;;;;5007701;28;20116;-77
2023/07/25 10:46:33;;;;;;;1.77;1.20;;;;;;;;;;5006915;28;20062;-78
2023/07/25 10:49:16;;;;;;;2.80;1.30;;;;;;;;;;5006841;28;20100;-77
2023/07/25 10:51:48;;;;;;;1.83;1.73;;;;;;;;;;5004444;28;20044;-78
2023/07/25 10:54:19;;;;;;;1.40;1.40;;;;;;;;;;5006093;28;20504;-77
2023/07/25 10:57:06;;;;;;;1.50;1.40;;;;;;;;;;5006120;28;20041;-79
2023/07/25 10:59:33;;;;;;;1.67;1.58;;;;;;;;;;5008200;28;20042;-79
2023/07/25 11:02:01;;;;;;;1.58;1.50;;;;;;;;;;5011264;28;20057;-77
2023/07/25 11:04:30;;;;;;;1.80;1.70;;;;;;;;;;4986281;28;20088;-78
2023/07/25 11:07:09;;;;;;;1.40;1.30;;;;;;;;;;4992718;28;20046;-80
2023/07/25 11:09:41;;;;;;;1.50;1.40;;;;;;;;;;5009188;28;20141;-79
2023/07/25 11:12:12;;;;;;;1.80;1.70;;;;;;;;;;5009748;28;20038;-78
2023/07/25 11:14:43;;;;;;;1.60;1.50;;;;;;;;;;4991099;28;20053;-77
2023/07/25 11:17:12;;;;;;;1.40;1.40;;;;;;;;;;5010267;28;20053;-78
2023/07/25 11:19:39;;;;;;;2.65;1.60;;;;;;;;;;5014684;28;20128;-78
2023/07/25 11:22:11;;;;;;;1.40;1.38;;;;;;;;;;5010289;28;20072;-78
2023/07/25 11:24:42;;;;;;;1.58;1.38;;;;;;;;;;5011445;28;20046;-78
2023/07/25 11:27:12;;;;;;;1.23;1.13;;;;;;;;;;4992369;28;20037;-78
2023/07/25 11:29:39;;;;;;;1.20;1.20;;;;;;;;;;5008994;28;20049;-78
2023/07/25 11:32:07;;;;;;;1.30;1.20;;;;;;;;;;5006587;28;20104;-78
2023/07/25 11:34:35;;;;;;;1.20;1.20;;;;;;;;;;5005805;28;20136;-78
2023/07/25 11:37:08;;;;;;;1.40;1.30;;;;;;;;;;4987638;28;20049;-77
2023/07/25 11:39:36;;;;;;;2.40;1.23;;;;;;;;;;5008958;28;20488;-77
2023/07/25 11:42:08;;;;;;;1.95;1.48;;;;;;;;;;5010784;28;20046;-77
2023/07/25 11:44:35;;;;;;;1.70;1.60;;;;;;;;;;5011361;28;20050;-77
2023/07/25 11:47:04;;;;;;;1.80;1.70;;;;;;;;;;4975277;28;20072;-78
2023/07/25 11:49:32;;;;;;;1.80;1.70;;;;;;;;;;5007738;28;20100;-78
2023/07/25 11:52:16;;;;;;;1.50;1.50;;;;;;;;;;5009442;28;20522;-78
2023/07/25 11:54:45;;;;;;;1.55;1.48;;;;;;;;;;5008630;28;20081;-78
2023/07/25 11:57:13;;;;;;;1.60;1.50;;;;;;;;;;5007116;28;20100;-78
2023/07/25 11:59:40;;;;;;;1.45;1.38;;;;;;;;;;5007794;28;20116;-78
2023/07/25 12:02:08;;;;;;;1.92;1.67;;;;;;;;;;4993413;28;20046;-78
2023/07/25 12:04:42;;;;;;;2.00;1.90;;;;;;;;;;5008967;28;20133;-78
2023/07/25 12:07:09;;;;;;;2.00;1.85;;;;;;;;;;5005632;28;20092;-77
2023/07/25 12:09:37;;;;;;;1.80;1.70;;;;;;;;;;4986651;28;20042;-78
2023/07/25 12:12:11;;;;;;;2.13;1.95;;;;;;;;;;5007450;28;20042;-78
2023/07/25 12:14:42;;;;;;;2.15;2.00;;;;;;;;;;5003709;28;20049;-78
2023/07/25 12:17:11;;;;;;;2.30;2.13;;;;;;;;;;5005309;28;20424;-78
2023/07/25 12:19:38;;;;;;;2.17;2.00;;;;;;;;;;5005174;28;20116;-77
2023/07/25 12:22:07;;;;;;;6.40;2.10;;;;;;;;;;5003689;28;20092;-78
2023/07/25 12:24:41;;;;;;;3.30;2.50;;;;;;;;;;4985365;28;20080;-77
2023/07/25 12:27:19;;;;;;;2.90;2.70;;;;;;;;;;5003823;28;20125;-77
2023/07/25 12:29:46;;;;;;;2.92;2.67;;;;;;;;;;5000345;28;20493;-77
2023/07/25 12:32:14;;;;;;;2.53;2.33;;;;;;;;;;5006910;28;20045;-78
2023/07/25 12:34:41;;;;;;;2.63;2.42;;;;;;;;;;5007689;28;20096;-77
2023/07/25 12:37:09;;;;;;;2.20;2.00;;;;;;;;;;5006980;28;20492;-77
2023/07/25 12:39:36;;;;;;;4.53;2.60;;;;;;;;;;5004239;28;20045;-78
2023/07/25 12:42:04;;;;;;;2.78;2.45;;;;;;;;;;4989475;28;20302;-77
2023/07/25 12:44:34;;;;;;;4.45;2.55;;;;;;;;;;4986764;28;20412;-77
2023/07/25 12:47:02;;;;;;;2.60;2.05;;;;;;;;;;4992895;28;20497;-78
2023/07/25 12:49:29;;;;;;;2.50;2.03;;;;;;;;;;5012487;28;20464;-77
2023/07/25 12:51:59;;;;;;;2.58;2.15;;;;;;;;;;5012065;28;20491;-78
2023/07/25 12:54:26;;;;;;;1.92;1.83;;;;;;;;;;4988820;28;20042;-79
2023/07/25 12:56:53;;;;;;;1.98;1.88;;;;;;;;;;5005364;28;20081;-78
2023/07/25 12:59:21;;;;;;;1.65;1.65;;;;;;;;;;5001900;28;20048;-77
2023/07/25 13:01:48;;;;;;;2.00;1.90;;;;;;;;;;5003630;28;20048;-78
2023/07/25 13:04:16;;;;;;;2.20;2.10;;;;;;;;;;5005242;28;20045;-78
2023/07/25 13:06:44;;;;;;;2.03;1.83;;;;;;;;;;5005350;28;20042;-80
2023/07/25 13:09:12;;;;;;;3.42;2.58;;;;;;;;;;5004223;28;20046;-79
2023/07/25 13:11:39;;;;;;;2.40;2.15;;;;;;;;;;5008778;28;20503;-79
2023/07/25 13:14:07;;;;;;;1.80;1.70;;;;;;;;;;5007423;28;20132;-78
2023/07/25 13:16:35;;;;;;;1.92;1.83;;;;;;;;;;5026650;23;20044;-76
2023/07/25 13:19:02;;;;;;;1.83;1.73;;;;;;;;;;5038339;28;20051;-74
2023/07/25 13:21:30;;;;;;;1.73;1.58;;;;;;;;;;5040023;28;20045;-74
2023/07/25 13:23:58;;;;;;;2.10;1.98;;;;;;;;;;5034531;28;20084;-75
2023/07/25 13:26:25;;;;;;;1.60;1.50;;;;;;;;;;5040208;28;20048;-74
2023/07/25 13:28:53;;;;;;;3.67;1.80;;;;;;;;;;5044620;28;20057;-74
2023/07/25 13:31:20;;;;;;;2.13;1.95;;;;;;;;;;5048767;28;20548;-76
2023/07/25 13:33:47;;;;;;;1.63;1.52;;;;;;;;;;5047625;28;20059;-74
2023/07/25 13:36:15;;;;;;;1.50;1.40;;;;;;;;;;5046042;28;20449;-74
2023/07/25 13:38:42;;;;;;;1.83;1.40;;;;;;;;;;5044383;28;20045;-77
2023/07/25 13:41:10;;;;;;;1.55;1.45;;;;;;;;;;5047424;28;20491;-74
2023/07/25 13:43:38;;;;;;;1.10;1.00;;;;;;;;;;5041825;28;20357;-74
2023/07/25 13:46:07;;;;;;;1.48;1.08;;;;;;;;;;5046793;28;20041;-73
2023/07/25 13:48:35;;;;;;;1.13;1.10;;;;;;;;;;5042379;28;20050;-75
2023/07/25 13:51:03;;;;;;;0.70;0.70;;;;;;;;;;5044461;28;20057;-78
2023/07/25 13:53:30;;;;;;;1.42;1.15;;;;;;;;;;5045105;28;20040;-74
2023/07/25 13:55:58;;;;;;;0.82;0.82;;;;;;;;;;5046019;28;20529;-72
2023/07/25 13:58:27;;;;;;;0.90;0.90;;;;;;;;;;5043794;28;20534;-73
2023/07/25 14:00:55;;;;;;;2.38;0.90;;;;;;;;;;5040814;28;20060;-73
2023/07/25 14:03:23;;;;;;;1.50;1.00;;;;;;;;;;5042211;28;20037;-72
2023/07/25 14:05:50;;;;;;;1.25;0.88;;;;;;;;;;5038389;28;20502;-76
2023/07/25 14:08:18;;;;;;;0.88;0.88;;;;;;;;;;5043883;28;20095;-74
2023/07/25 14:10:45;;;;;;;1.08;0.88;;;;;;;;;;5041711;28;20045;-74
2023/07/25 14:13:13;;;;;;;3.05;1.30;;;;;;;;;;5046930;28;20529;-74
2023/07/25 14:15:40;;;;;;;1.02;1.02;;;;;;;;;;5043764;28;20049;-74
2023/07/25 14:18:08;;;;;;;1.10;1.10;;;;;;;;;;5042956;28;20041;-74
2023/07/25 14:20:37;;;;;;;1.00;0.90;;;;;;;;;;5046055;28;20059;-74
2023/07/25 14:23:05;;;;;;;0.95;0.93;;;;;;;;;;5045229;28;20068;-73
2023/07/25 14:25:32;;;;;;;1.13;1.10;;;;;;;;;;5044373;28;20071;-74
2023/07/25 14:28:00;;;;;;;1.25;1.10;;;;;;;;;;5045000;28;20056;-78
2023/07/25 14:30:27;;;;;;;0.88;0.88;;;;;;;;;;5042840;28;20048;-75
2023/07/25 14:32:55;;;;;;;1.00;0.93;;;;;;;;;;5041492;28;20067;-75
2023/07/25 14:35:22;;;;;;;1.02;1.02;;;;;;;;;;5045462;28;20051;-76
2023/07/25 14:37:50;;;;;;;0.85;0.85;;;;;;;;;;5045752;28;20121;-76
2023/07/25 14:40:24;;;;;;;0.80;0.80;;;;;;;;;;5044973;28;20186;-75
2023/07/25 14:42:52;;;;;;;1.40;1.00;;;;;;;;;;5045117;28;20418;-74
2023/07/25 14:45:19;;;;;;;0.90;0.90;;;;;;;;;;5045357;28;20049;-75
2023/07/25 14:47:47;;;;;;;0.68;0.68;;;;;;;;;;5046017;28;20056;-75
2023/07/25 14:50:15;;;;;;;0.80;0.80;;;;;;;;;;5045969;28;20045;-75
2023/07/25 14:52:42;;;;;;;0.90;0.90;;;;;;;;;;5039624;28;20423;-77
2023/07/25 14:55:10;;;;;;;0.80;0.80;;;;;;;;;;5043200;28;20506;-76
2023/07/25 14:57:37;;;;;;;1.23;0.93;;;;;;;;;;5041273;28;20046;-76
2023/07/25 15:00:06;;;;;;;1.00;1.00;;;;;;;;;;5043842;28;20241;-74
2023/07/25 15:02:33;;;;;;;2.92;0.95;;;;;;;;;;5040222;28;20040;-77
2023/07/25 15:05:01;;;;;;;1.77;1.10;;;;;;;;;;5043582;28;20045;-74
2023/07/25 15:07:28;;;;;;;1.08;1.00;;;;;;;;;;5038675;28;20124;-76
2023/07/25 15:09:56;;;;;;;0.80;0.80;;;;;;;;;;5041469;28;20072;-76
2023/07/25 15:12:25;;;;;;;1.20;0.98;;;;;;;;;;5048903;28;20049;-74
2023/07/25 15:14:53;;;;;;;1.48;0.75;;;;;;;;;;5050151;28;20044;-74